sensor_id;sensor_type;location;lat;lon;timestamp;P1;durP1;ratioP1;P2;durP2;ratioP2
30593;SDS011;33199;47.590;8.300;2023-04-07T00:02:14;1.10;;;0.80;;
30593;SDS011;33199;47.590;8.300;2023-04-07T00:04:40;0.70;;;0.70;;
30593;SDS011;33199;47.590;8.300;2023-04-07T00:07:06;0.80;;;0.80;;
30593;SDS011;33199;47.590;8.300;2023-04-07T00:09:32;0.82;;;0.82;;
30593;SDS011;33199;47.590;8.300;2023-04-07T00:11:57;0.70;;;0.70;;
30593;SDS011;33199;47.590;8.300;2023-04-07T00:14:25;0.68;;;0.68;;
30593;SDS011;33199;47.590;8.300;2023-04-07T00:16:51;0.80;;;0.80;;
30593;SDS011;33199;47.590;8.300;2023-04-07T00:19:16;0.90;;;0.90;;
30593;SDS011;33199;47.590;8.300;2023-04-07T00:21:42;1.10;;;0.73;;
30593;SDS011;33199;47.590;8.300;2023-04-07T00:24:08;0.82;;;0.82;;
30593;SDS011;33199;47.590;8.300;2023-04-07T00:26:33;0.90;;;0.70;;
30593;SDS011;33199;47.590;8.300;2023-04-07T00:28:59;0.90;;;0.90;;
30593;SDS011;33199;47.590;8.300;2023-04-07T00:31:25;0.77;;;0.60;;
30593;SDS011;33199;47.590;8.300;2023-04-07T00:33:51;0.70;;;0.70;;
30593;SDS011;33199;47.590;8.300;2023-04-07T00:36:16;1.10;;;1.00;;
30593;SDS011;33199;47.590;8.300;2023-04-07T00:38:42;1.02;;;0.90;;
30593;SDS011;33199;47.590;8.300;2023-04-07T00:41:08;0.68;;;0.68;;
30593;SDS011;33199;47.590;8.300;2023-04-07T00:43:34;0.80;;;0.80;;
30593;SDS011;33199;47.590;8.300;2023-04-07T00:46:00;0.70;;;0.70;;
30593;SDS011;33199;47.590;8.300;2023-04-07T00:48:25;0.80;;;0.80;;
30593;SDS011;33199;47.590;8.300;2023-04-07T00:50:51;1.92;;;1.00;;
30593;SDS011;33199;47.590;8.300;2023-04-07T00:53:17;1.10;;;0.90;;
30593;SDS011;33199;47.590;8.300;2023-04-07T00:55:43;0.95;;;0.82;;
30593;SDS011;33199;47.590;8.300;2023-04-07T00:58:09;0.85;;;0.85;;
30593;SDS011;33199;47.590;8.300;2023-04-07T01:00:37;0.90;;;0.90;;
30593;SDS011;33199;47.590;8.300;2023-04-07T01:03:23;1.10;;;0.80;;
30593;SDS011;33199;47.590;8.300;2023-04-07T01:05:54;0.75;;;0.75;;
30593;SDS011;33199;47.590;8.300;2023-04-07T01:11:07;0.90;;;0.90;;
30593;SDS011;33199;47.590;8.300;2023-04-07T01:13:42;1.35;;;0.80;;
30593;SDS011;33199;47.590;8.300;2023-04-07T01:16:16;1.05;;;0.70;;
30593;SDS011;33199;47.590;8.300;2023-04-07T01:18:48;0.82;;;0.82;;
30593;SDS011;33199;47.590;8.300;2023-04-07T01:21:18;0.80;;;0.80;;
30593;SDS011;33199;47.590;8.300;2023-04-07T01:26:30;1.08;;;0.90;;
30593;SDS011;33199;47.590;8.300;2023-04-07T01:31:44;0.70;;;0.70;;
30593;SDS011;33199;47.590;8.300;2023-04-07T01:34:12;0.80;;;0.80;;
30593;SDS011;33199;47.590;8.300;2023-04-07T01:36:40;1.00;;;0.90;;
30593;SDS011;33199;47.590;8.300;2023-04-07T01:39:06;1.27;;;1.00;;
30593;SDS011;33199;47.590;8.300;2023-04-07T01:41:34;1.20;;;0.90;;
30593;SDS011;33199;47.590;8.300;2023-04-07T01:44:01;1.38;;;0.98;;
30593;SDS011;33199;47.590;8.300;2023-04-07T01:46:28;0.98;;;0.98;;
30593;SDS011;33199;47.590;8.300;2023-04-07T01:48:54;1.00;;;1.00;;
30593;SDS011;33199;47.590;8.300;2023-04-07T01:51:20;2.10;;;0.93;;
30593;SDS011;33199;47.590;8.300;2023-04-07T01:53:47;1.00;;;1.00;;
30593;SDS011;33199;47.590;8.300;2023-04-07T01:56:14;0.88;;;0.82;;
30593;SDS011;33199;47.590;8.300;2023-04-07T01:58:40;0.80;;;0.80;;
30593;SDS011;33199;47.590;8.300;2023-04-07T02:01:06;1.50;;;0.90;;
30593;SDS011;33199;47.590;8.300;2023-04-07T02:03:35;0.65;;;0.65;;
30593;SDS011;33199;47.590;8.300;2023-04-07T02:06:06;0.80;;;0.80;;
30593;SDS011;33199;47.590;8.300;2023-04-07T02:08:35;0.90;;;0.90;;
30593;SDS011;33199;47.590;8.300;2023-04-07T02:11:05;1.50;;;0.90;;
30593;SDS011;33199;47.590;8.300;2023-04-07T02:13:33;1.63;;;1.02;;
30593;SDS011;33199;47.590;8.300;2023-04-07T02:16:01;0.90;;;0.90;;
30593;SDS011;33199;47.590;8.300;2023-04-07T02:18:28;0.88;;;0.88;;
30593;SDS011;33199;47.590;8.300;2023-04-07T02:20:56;0.77;;;0.77;;
30593;SDS011;33199;47.590;8.300;2023-04-07T02:23:23;0.88;;;0.82;;
30593;SDS011;33199;47.590;8.300;2023-04-07T02:25:49;0.90;;;0.90;;
30593;SDS011;33199;47.590;8.300;2023-04-07T02:28:15;0.70;;;0.70;;
30593;SDS011;33199;47.590;8.300;2023-04-07T02:30:41;1.45;;;1.08;;
30593;SDS011;33199;47.590;8.300;2023-04-07T02:33:06;0.60;;;0.60;;
30593;SDS011;33199;47.590;8.300;2023-04-07T02:35:32;1.15;;;1.05;;
30593;SDS011;33199;47.590;8.300;2023-04-07T02:37:58;0.90;;;0.90;;
30593;SDS011;33199;47.590;8.300;2023-04-07T02:40:23;1.00;;;1.00;;
30593;SDS011;33199;47.590;8.300;2023-04-07T02:42:49;0.90;;;0.90;;
30593;SDS011;33199;47.590;8.300;2023-04-07T02:45:16;0.77;;;0.77;;
30593;SDS011;33199;47.590;8.300;2023-04-07T02:47:41;0.73;;;0.73;;
30593;SDS011;33199;47.590;8.300;2023-04-07T02:50:07;0.80;;;0.80;;
30593;SDS011;33199;47.590;8.300;2023-04-07T02:52:33;0.88;;;0.88;;
30593;SDS011;33199;47.590;8.300;2023-04-07T02:54:58;1.13;;;0.80;;
30593;SDS011;33199;47.590;8.300;2023-04-07T02:57:25;0.90;;;0.90;;
30593;SDS011;33199;47.590;8.300;2023-04-07T02:59:50;0.80;;;0.80;;
30593;SDS011;33199;47.590;8.300;2023-04-07T03:02:16;0.80;;;0.80;;
30593;SDS011;33199;47.590;8.300;2023-04-07T03:04:43;0.93;;;0.93;;
30593;SDS011;33199;47.590;8.300;2023-04-07T03:07:08;0.98;;;0.88;;
30593;SDS011;33199;47.590;8.300;2023-04-07T03:09:34;0.95;;;0.95;;
30593;SDS011;33199;47.590;8.300;2023-04-07T03:12:01;1.25;;;0.73;;
30593;SDS011;33199;47.590;8.300;2023-04-07T03:14:27;1.00;;;0.90;;
30593;SDS011;33199;47.590;8.300;2023-04-07T03:16:52;1.00;;;0.90;;
30593;SDS011;33199;47.590;8.300;2023-04-07T03:19:18;0.88;;;0.88;;
30593;SDS011;33199;47.590;8.300;2023-04-07T03:21:44;0.90;;;0.90;;
30593;SDS011;33199;47.590;8.300;2023-04-07T03:24:09;0.80;;;0.80;;
30593;SDS011;33199;47.590;8.300;2023-04-07T03:26:35;0.88;;;0.88;;
30593;SDS011;33199;47.590;8.300;2023-04-07T03:29:01;1.05;;;1.02;;
30593;SDS011;33199;47.590;8.300;2023-04-07T03:31:26;1.10;;;1.00;;
30593;SDS011;33199;47.590;8.300;2023-04-07T03:33:52;1.00;;;0.88;;
30593;SDS011;33199;47.590;8.300;2023-04-07T03:36:18;1.08;;;0.98;;
30593;SDS011;33199;47.590;8.300;2023-04-07T03:38:45;0.90;;;0.90;;
30593;SDS011;33199;47.590;8.300;2023-04-07T03:41:11;0.77;;;0.77;;
30593;SDS011;33199;47.590;8.300;2023-04-07T03:43:37;0.77;;;0.77;;
30593;SDS011;33199;47.590;8.300;2023-04-07T03:46:02;0.80;;;0.80;;
30593;SDS011;33199;47.590;8.300;2023-04-07T03:48:28;0.82;;;0.82;;
30593;SDS011;33199;47.590;8.300;2023-04-07T03:50:54;0.80;;;0.80;;
30593;SDS011;33199;47.590;8.300;2023-04-07T03:53:20;1.27;;;1.05;;
30593;SDS011;33199;47.590;8.300;2023-04-07T03:55:45;0.85;;;0.85;;
30593;SDS011;33199;47.590;8.300;2023-04-07T03:58:11;0.80;;;0.80;;
30593;SDS011;33199;47.590;8.300;2023-04-07T04:00:37;1.00;;;1.00;;
30593;SDS011;33199;47.590;8.300;2023-04-07T04:03:03;1.00;;;1.00;;
30593;SDS011;33199;47.590;8.300;2023-04-07T04:05:29;1.08;;;0.98;;
30593;SDS011;33199;47.590;8.300;2023-04-07T04:07:55;1.80;;;0.80;;
30593;SDS011;33199;47.590;8.300;2023-04-07T04:10:21;1.00;;;1.00;;
30593;SDS011;33199;47.590;8.300;2023-04-07T04:12:47;1.08;;;0.90;;
30593;SDS011;33199;47.590;8.300;2023-04-07T04:15:13;0.93;;;0.80;;
30593;SDS011;33199;47.590;8.300;2023-04-07T04:17:39;0.80;;;0.80;;
30593;SDS011;33199;47.590;8.300;2023-04-07T04:20:06;1.33;;;0.70;;
30593;SDS011;33199;47.590;8.300;2023-04-07T04:22:32;1.10;;;1.00;;
30593;SDS011;33199;47.590;8.300;2023-04-07T04:24:58;1.42;;;0.80;;
30593;SDS011;33199;47.590;8.300;2023-04-07T04:27:24;1.60;;;1.00;;
30593;SDS011;33199;47.590;8.300;2023-04-07T04:29:50;0.93;;;0.88;;
30593;SDS011;33199;47.590;8.300;2023-04-07T04:32:16;0.90;;;0.90;;
30593;SDS011;33199;47.590;8.300;2023-04-07T04:34:42;2.13;;;1.10;;
30593;SDS011;33199;47.590;8.300;2023-04-07T04:37:07;1.10;;;1.00;;
30593;SDS011;33199;47.590;8.300;2023-04-07T04:39:34;0.85;;;0.85;;
30593;SDS011;33199;47.590;8.300;2023-04-07T04:42:00;1.10;;;1.05;;
30593;SDS011;33199;47.590;8.300;2023-04-07T04:44:26;0.98;;;0.98;;
30593;SDS011;33199;47.590;8.300;2023-04-07T04:46:51;0.93;;;0.90;;
30593;SDS011;33199;47.590;8.300;2023-04-07T04:49:17;1.48;;;0.90;;
30593;SDS011;33199;47.590;8.300;2023-04-07T04:51:43;0.98;;;0.88;;
30593;SDS011;33199;47.590;8.300;2023-04-07T04:54:09;1.05;;;0.95;;
30593;SDS011;33199;47.590;8.300;2023-04-07T04:56:36;0.80;;;0.80;;
30593;SDS011;33199;47.590;8.300;2023-04-07T04:59:02;1.00;;;1.00;;
30593;SDS011;33199;47.590;8.300;2023-04-07T05:01:29;0.90;;;0.90;;
30593;SDS011;33199;47.590;8.300;2023-04-07T05:03:55;0.93;;;0.90;;
30593;SDS011;33199;47.590;8.300;2023-04-07T05:06:21;1.10;;;1.00;;
30593;SDS011;33199;47.590;8.300;2023-04-07T05:08:46;1.00;;;1.00;;
30593;SDS011;33199;47.590;8.300;2023-04-07T05:11:12;0.85;;;0.85;;
30593;SDS011;33199;47.590;8.300;2023-04-07T05:13:38;1.70;;;0.80;;
30593;SDS011;33199;47.590;8.300;2023-04-07T05:16:04;0.98;;;0.98;;
30593;SDS011;33199;47.590;8.300;2023-04-07T05:18:30;1.05;;;0.95;;
30593;SDS011;33199;47.590;8.300;2023-04-07T05:20:57;0.88;;;0.88;;
30593;SDS011;33199;47.590;8.300;2023-04-07T05:23:22;0.90;;;0.90;;
30593;SDS011;33199;47.590;8.300;2023-04-07T05:25:49;0.80;;;0.80;;
30593;SDS011;33199;47.590;8.300;2023-04-07T05:28:15;1.05;;;1.00;;
30593;SDS011;33199;47.590;8.300;2023-04-07T05:30:40;0.98;;;0.98;;
30593;SDS011;33199;47.590;8.300;2023-04-07T05:33:06;1.00;;;1.00;;
30593;SDS011;33199;47.590;8.300;2023-04-07T05:35:31;0.80;;;0.80;;
30593;SDS011;33199;47.590;8.300;2023-04-07T05:37:57;1.20;;;1.10;;
30593;SDS011;33199;47.590;8.300;2023-04-07T05:40:23;1.00;;;0.88;;
30593;SDS011;33199;47.590;8.300;2023-04-07T05:42:49;1.00;;;0.82;;
30593;SDS011;33199;47.590;8.300;2023-04-07T05:45:14;1.00;;;1.00;;
30593;SDS011;33199;47.590;8.300;2023-04-07T05:47:41;0.90;;;0.90;;
30593;SDS011;33199;47.590;8.300;2023-04-07T05:50:07;0.80;;;0.80;;
30593;SDS011;33199;47.590;8.300;2023-04-07T05:52:33;1.77;;;0.80;;
30593;SDS011;33199;47.590;8.300;2023-04-07T05:54:59;0.90;;;0.90;;
30593;SDS011;33199;47.590;8.300;2023-04-07T05:57:24;1.00;;;1.00;;
30593;SDS011;33199;47.590;8.300;2023-04-07T05:59:52;1.23;;;0.95;;
30593;SDS011;33199;47.590;8.300;2023-04-07T06:02:18;1.65;;;0.90;;
30593;SDS011;33199;47.590;8.300;2023-04-07T06:04:43;1.77;;;1.30;;
30593;SDS011;33199;47.590;8.300;2023-04-07T06:07:09;1.05;;;1.05;;
30593;SDS011;33199;47.590;8.300;2023-04-07T06:09:34;0.80;;;0.80;;
30593;SDS011;33199;47.590;8.300;2023-04-07T06:12:00;1.13;;;1.13;;
30593;SDS011;33199;47.590;8.300;2023-04-07T06:14:28;0.95;;;0.93;;
30593;SDS011;33199;47.590;8.300;2023-04-07T06:16:54;0.85;;;0.85;;
30593;SDS011;33199;47.590;8.300;2023-04-07T06:19:20;1.10;;;1.10;;
30593;SDS011;33199;47.590;8.300;2023-04-07T06:21:45;0.80;;;0.70;;
30593;SDS011;33199;47.590;8.300;2023-04-07T06:24:12;0.90;;;0.90;;
30593;SDS011;33199;47.590;8.300;2023-04-07T06:26:38;0.93;;;0.93;;
30593;SDS011;33199;47.590;8.300;2023-04-07T06:29:04;1.15;;;1.00;;
30593;SDS011;33199;47.590;8.300;2023-04-07T06:31:30;0.80;;;0.80;;
30593;SDS011;33199;47.590;8.300;2023-04-07T06:33:56;0.80;;;0.80;;
30593;SDS011;33199;47.590;8.300;2023-04-07T06:36:23;0.85;;;0.85;;
30593;SDS011;33199;47.590;8.300;2023-04-07T06:38:48;1.15;;;1.15;;
30593;SDS011;33199;47.590;8.300;2023-04-07T06:41:14;1.02;;;1.02;;
30593;SDS011;33199;47.590;8.300;2023-04-07T06:46:10;0.98;;;0.93;;
30593;SDS011;33199;47.590;8.300;2023-04-07T06:48:36;0.90;;;0.90;;
30593;SDS011;33199;47.590;8.300;2023-04-07T06:51:01;0.90;;;0.90;;
30593;SDS011;33199;47.590;8.300;2023-04-07T06:53:27;1.55;;;0.90;;
30593;SDS011;33199;47.590;8.300;2023-04-07T06:56:06;0.90;;;0.90;;
30593;SDS011;33199;47.590;8.300;2023-04-07T06:58:33;1.08;;;1.08;;
30593;SDS011;33199;47.590;8.300;2023-04-07T07:00:59;1.10;;;1.00;;
30593;SDS011;33199;47.590;8.300;2023-04-07T07:03:26;1.13;;;1.05;;
30593;SDS011;33199;47.590;8.300;2023-04-07T07:05:53;0.95;;;0.95;;
30593;SDS011;33199;47.590;8.300;2023-04-07T07:08:23;1.10;;;1.10;;
30593;SDS011;33199;47.590;8.300;2023-04-07T07:10:49;0.90;;;0.90;;
30593;SDS011;33199;47.590;8.300;2023-04-07T07:13:14;1.10;;;1.00;;
30593;SDS011;33199;47.590;8.300;2023-04-07T07:15:40;1.15;;;1.15;;
30593;SDS011;33199;47.590;8.300;2023-04-07T07:18:06;1.15;;;1.05;;
30593;SDS011;33199;47.590;8.300;2023-04-07T07:20:31;1.00;;;1.00;;
30593;SDS011;33199;47.590;8.300;2023-04-07T07:22:58;1.27;;;1.17;;
30593;SDS011;33199;47.590;8.300;2023-04-07T07:25:24;0.82;;;0.82;;
30593;SDS011;33199;47.590;8.300;2023-04-07T07:27:53;1.17;;;1.17;;
30593;SDS011;33199;47.590;8.300;2023-04-07T07:30:21;0.80;;;0.80;;
30593;SDS011;33199;47.590;8.300;2023-04-07T07:32:48;1.20;;;1.10;;
30593;SDS011;33199;47.590;8.300;2023-04-07T07:35:14;1.30;;;1.05;;
30593;SDS011;33199;47.590;8.300;2023-04-07T07:37:40;0.73;;;0.73;;
30593;SDS011;33199;47.590;8.300;2023-04-07T07:40:06;1.10;;;1.00;;
30593;SDS011;33199;47.590;8.300;2023-04-07T07:42:32;1.20;;;1.10;;
30593;SDS011;33199;47.590;8.300;2023-04-07T07:44:58;0.70;;;0.70;;
30593;SDS011;33199;47.590;8.300;2023-04-07T07:47:24;1.50;;;1.10;;
30593;SDS011;33199;47.590;8.300;2023-04-07T07:49:50;0.80;;;0.80;;
30593;SDS011;33199;47.590;8.300;2023-04-07T07:52:16;0.95;;;0.90;;
30593;SDS011;33199;47.590;8.300;2023-04-07T07:54:42;2.65;;;0.90;;
30593;SDS011;33199;47.590;8.300;2023-04-07T07:57:09;1.30;;;1.20;;
30593;SDS011;33199;47.590;8.300;2023-04-07T07:59:34;1.27;;;1.17;;
30593;SDS011;33199;47.590;8.300;2023-04-07T08:02:00;1.48;;;0.90;;
30593;SDS011;33199;47.590;8.300;2023-04-07T08:04:26;2.05;;;1.10;;
30593;SDS011;33199;47.590;8.300;2023-04-07T08:06:52;1.00;;;1.00;;
30593;SDS011;33199;47.590;8.300;2023-04-07T08:09:18;0.93;;;0.90;;
30593;SDS011;33199;47.590;8.300;2023-04-07T08:11:44;1.13;;;1.10;;
30593;SDS011;33199;47.590;8.300;2023-04-07T08:14:12;1.10;;;1.10;;
30593;SDS011;33199;47.590;8.300;2023-04-07T08:16:38;0.90;;;0.90;;
30593;SDS011;33199;47.590;8.300;2023-04-07T08:19:03;1.13;;;1.05;;
30593;SDS011;33199;47.590;8.300;2023-04-07T08:21:29;1.33;;;1.23;;
30593;SDS011;33199;47.590;8.300;2023-04-07T08:23:56;1.85;;;1.17;;
30593;SDS011;33199;47.590;8.300;2023-04-07T08:26:21;1.05;;;1.00;;
30593;SDS011;33199;47.590;8.300;2023-04-07T08:28:48;1.02;;;1.02;;
30593;SDS011;33199;47.590;8.300;2023-04-07T08:31:15;1.08;;;1.08;;
30593;SDS011;33199;47.590;8.300;2023-04-07T08:33:41;0.80;;;0.80;;
30593;SDS011;33199;47.590;8.300;2023-04-07T08:36:07;1.10;;;1.05;;
30593;SDS011;33199;47.590;8.300;2023-04-07T08:38:32;1.05;;;1.05;;
30593;SDS011;33199;47.590;8.300;2023-04-07T08:41:17;1.13;;;1.10;;
30593;SDS011;33199;47.590;8.300;2023-04-07T08:43:45;3.50;;;1.13;;
30593;SDS011;33199;47.590;8.300;2023-04-07T08:46:13;1.40;;;1.27;;
30593;SDS011;33199;47.590;8.300;2023-04-07T08:48:39;1.00;;;1.00;;
30593;SDS011;33199;47.590;8.300;2023-04-07T08:51:08;1.00;;;1.00;;
30593;SDS011;33199;47.590;8.300;2023-04-07T08:53:42;1.02;;;1.02;;
30593;SDS011;33199;47.590;8.300;2023-04-07T08:56:14;0.90;;;0.90;;
30593;SDS011;33199;47.590;8.300;2023-04-07T08:58:41;1.38;;;0.95;;
30593;SDS011;33199;47.590;8.300;2023-04-07T09:01:08;0.90;;;0.90;;
30593;SDS011;33199;47.590;8.300;2023-04-07T09:03:34;1.27;;;1.00;;
30593;SDS011;33199;47.590;8.300;2023-04-07T09:06:00;0.95;;;0.95;;
30593;SDS011;33199;47.590;8.300;2023-04-07T09:08:26;1.30;;;1.20;;
30593;SDS011;33199;47.590;8.300;2023-04-07T09:10:52;1.02;;;1.02;;
30593;SDS011;33199;47.590;8.300;2023-04-07T09:13:18;0.88;;;0.88;;
30593;SDS011;33199;47.590;8.300;2023-04-07T09:15:44;0.98;;;0.98;;
30593;SDS011;33199;47.590;8.300;2023-04-07T09:18:10;1.10;;;1.10;;
30593;SDS011;33199;47.590;8.300;2023-04-07T09:25:54;1.35;;;1.25;;
30593;SDS011;33199;47.590;8.300;2023-04-07T09:28:21;1.10;;;1.00;;
30593;SDS011;33199;47.590;8.300;2023-04-07T09:30:51;1.60;;;1.00;;
30593;SDS011;33199;47.590;8.300;2023-04-07T09:33:25;0.85;;;0.80;;
30593;SDS011;33199;47.590;8.300;2023-04-07T09:35:54;0.98;;;0.98;;
30593;SDS011;33199;47.590;8.300;2023-04-07T09:38:20;1.20;;;1.10;;
30593;SDS011;33199;47.590;8.300;2023-04-07T09:40:47;0.90;;;0.90;;
30593;SDS011;33199;47.590;8.300;2023-04-07T09:43:17;1.30;;;1.20;;
30593;SDS011;33199;47.590;8.300;2023-04-07T09:45:43;1.27;;;0.90;;
30593;SDS011;33199;47.590;8.300;2023-04-07T09:48:18;1.17;;;1.08;;
30593;SDS011;33199;47.590;8.300;2023-04-07T09:50:45;1.10;;;1.10;;
30593;SDS011;33199;47.590;8.300;2023-04-07T09:53:14;0.90;;;0.88;;
30593;SDS011;33199;47.590;8.300;2023-04-07T09:55:40;0.82;;;0.82;;
30593;SDS011;33199;47.590;8.300;2023-04-07T09:58:07;1.20;;;1.20;;
30593;SDS011;33199;47.590;8.300;2023-04-07T10:00:41;1.35;;;1.10;;
30593;SDS011;33199;47.590;8.300;2023-04-07T10:03:07;0.95;;;0.95;;
30593;SDS011;33199;47.590;8.300;2023-04-07T10:05:33;0.90;;;0.90;;
30593;SDS011;33199;47.590;8.300;2023-04-07T10:08:02;1.20;;;1.10;;
30593;SDS011;33199;47.590;8.300;2023-04-07T10:10:28;1.35;;;1.17;;
30593;SDS011;33199;47.590;8.300;2023-04-07T10:12:55;1.02;;;1.02;;
30593;SDS011;33199;47.590;8.300;2023-04-07T10:15:22;1.40;;;1.30;;
30593;SDS011;33199;47.590;8.300;2023-04-07T10:17:48;1.23;;;1.08;;
30593;SDS011;33199;47.590;8.300;2023-04-07T10:20:16;0.90;;;0.90;;
30593;SDS011;33199;47.590;8.300;2023-04-07T10:22:44;0.80;;;0.80;;
30593;SDS011;33199;47.590;8.300;2023-04-07T10:25:12;0.88;;;0.80;;
30593;SDS011;33199;47.590;8.300;2023-04-07T10:30:14;0.77;;;0.77;;
30593;SDS011;33199;47.590;8.300;2023-04-07T10:32:45;1.02;;;0.93;;
30593;SDS011;33199;47.590;8.300;2023-04-07T10:35:14;1.05;;;0.90;;
30593;SDS011;33199;47.590;8.300;2023-04-07T10:37:42;1.08;;;1.00;;
30593;SDS011;33199;47.590;8.300;2023-04-07T10:40:34;1.55;;;1.00;;
30593;SDS011;33199;47.590;8.300;2023-04-07T10:43:01;1.35;;;0.90;;
30593;SDS011;33199;47.590;8.300;2023-04-07T10:48:12;0.85;;;0.85;;
30593;SDS011;33199;47.590;8.300;2023-04-07T10:50:43;0.90;;;0.90;;
30593;SDS011;33199;47.590;8.300;2023-04-07T10:53:13;1.38;;;0.90;;
30593;SDS011;33199;47.590;8.300;2023-04-07T11:03:29;1.00;;;0.90;;
30593;SDS011;33199;47.590;8.300;2023-04-07T11:06:06;0.95;;;0.90;;
30593;SDS011;33199;47.590;8.300;2023-04-07T11:11:09;0.80;;;0.80;;
30593;SDS011;33199;47.590;8.300;2023-04-07T11:13:46;0.80;;;0.80;;
30593;SDS011;33199;47.590;8.300;2023-04-07T11:16:13;1.00;;;1.00;;
30593;SDS011;33199;47.590;8.300;2023-04-07T11:18:40;0.83;;;0.83;;
30593;SDS011;33199;47.590;8.300;2023-04-07T11:21:07;0.60;;;0.60;;
30593;SDS011;33199;47.590;8.300;2023-04-07T11:23:36;0.80;;;0.80;;
30593;SDS011;33199;47.590;8.300;2023-04-07T11:26:03;0.68;;;0.68;;
30593;SDS011;33199;47.590;8.300;2023-04-07T11:28:29;0.80;;;0.80;;
30593;SDS011;33199;47.590;8.300;2023-04-07T11:30:55;0.80;;;0.80;;
30593;SDS011;33199;47.590;8.300;2023-04-07T11:33:23;0.85;;;0.77;;
30593;SDS011;33199;47.590;8.300;2023-04-07T11:35:52;2.53;;;0.85;;
30593;SDS011;33199;47.590;8.300;2023-04-07T11:38:20;0.80;;;0.70;;
30593;SDS011;33199;47.590;8.300;2023-04-07T11:40:47;0.77;;;0.77;;
30593;SDS011;33199;47.590;8.300;2023-04-07T11:43:16;0.80;;;0.80;;
30593;SDS011;33199;47.590;8.300;2023-04-07T11:45:43;0.95;;;0.73;;
30593;SDS011;33199;47.590;8.300;2023-04-07T11:48:25;0.70;;;0.70;;
30593;SDS011;33199;47.590;8.300;2023-04-07T11:50:54;0.73;;;0.73;;
30593;SDS011;33199;47.590;8.300;2023-04-07T11:53:26;0.90;;;0.80;;
30593;SDS011;33199;47.590;8.300;2023-04-07T11:56:03;0.70;;;0.65;;
30593;SDS011;33199;47.590;8.300;2023-04-07T11:58:30;0.90;;;0.80;;
30593;SDS011;33199;47.590;8.300;2023-04-07T12:00:56;0.70;;;0.70;;
30593;SDS011;33199;47.590;8.300;2023-04-07T12:03:31;0.60;;;0.60;;
30593;SDS011;33199;47.590;8.300;2023-04-07T12:06:00;0.60;;;0.60;;
30593;SDS011;33199;47.590;8.300;2023-04-07T12:09:02;0.88;;;0.77;;
30593;SDS011;33199;47.590;8.300;2023-04-07T12:11:21;0.65;;;0.65;;
30593;SDS011;33199;47.590;8.300;2023-04-07T12:13:47;0.63;;;0.63;;
30593;SDS011;33199;47.590;8.300;2023-04-07T12:16:12;0.75;;;0.75;;
30593;SDS011;33199;47.590;8.300;2023-04-07T12:18:38;0.73;;;0.73;;
30593;SDS011;33199;47.590;8.300;2023-04-07T12:21:04;0.80;;;0.80;;
30593;SDS011;33199;47.590;8.300;2023-04-07T12:23:29;0.80;;;0.80;;
30593;SDS011;33199;47.590;8.300;2023-04-07T12:25:55;0.70;;;0.70;;
30593;SDS011;33199;47.590;8.300;2023-04-07T12:28:21;0.70;;;0.70;;
30593;SDS011;33199;47.590;8.300;2023-04-07T12:30:46;0.60;;;0.60;;
30593;SDS011;33199;47.590;8.300;2023-04-07T12:33:12;0.77;;;0.68;;
30593;SDS011;33199;47.590;8.300;2023-04-07T12:35:38;0.70;;;0.70;;
30593;SDS011;33199;47.590;8.300;2023-04-07T12:38:04;0.50;;;0.50;;
30593;SDS011;33199;47.590;8.300;2023-04-07T12:40:30;0.70;;;0.70;;
30593;SDS011;33199;47.590;8.300;2023-04-07T12:42:56;0.57;;;0.57;;
30593;SDS011;33199;47.590;8.300;2023-04-07T12:45:22;0.50;;;0.50;;
30593;SDS011;33199;47.590;8.300;2023-04-07T12:47:48;0.50;;;0.50;;
30593;SDS011;33199;47.590;8.300;2023-04-07T12:50:13;1.10;;;0.73;;
30593;SDS011;33199;47.590;8.300;2023-04-07T12:52:40;0.50;;;0.50;;
30593;SDS011;33199;47.590;8.300;2023-04-07T12:55:06;0.80;;;0.60;;
30593;SDS011;33199;47.590;8.300;2023-04-07T12:57:31;0.65;;;0.57;;
30593;SDS011;33199;47.590;8.300;2023-04-07T12:59:57;0.50;;;0.50;;
30593;SDS011;33199;47.590;8.300;2023-04-07T13:02:23;0.70;;;0.70;;
30593;SDS011;33199;47.590;8.300;2023-04-07T13:04:48;0.63;;;0.63;;
30593;SDS011;33199;47.590;8.300;2023-04-07T13:07:14;0.55;;;0.55;;
30593;SDS011;33199;47.590;8.300;2023-04-07T13:09:40;0.50;;;0.50;;
30593;SDS011;33199;47.590;8.300;2023-04-07T13:12:09;0.50;;;0.50;;
30593;SDS011;33199;47.590;8.300;2023-04-07T13:14:36;0.55;;;0.55;;
30593;SDS011;33199;47.590;8.300;2023-04-07T13:17:06;0.75;;;0.60;;
30593;SDS011;33199;47.590;8.300;2023-04-07T13:19:32;0.90;;;0.68;;
30593;SDS011;33199;47.590;8.300;2023-04-07T13:21:58;0.63;;;0.63;;
30593;SDS011;33199;47.590;8.300;2023-04-07T13:24:24;0.60;;;0.60;;
30593;SDS011;33199;47.590;8.300;2023-04-07T13:26:51;0.60;;;0.60;;
30593;SDS011;33199;47.590;8.300;2023-04-07T13:29:17;0.50;;;0.50;;
30593;SDS011;33199;47.590;8.300;2023-04-07T13:31:46;0.40;;;0.40;;
30593;SDS011;33199;47.590;8.300;2023-04-07T13:34:12;0.50;;;0.50;;
30593;SDS011;33199;47.590;8.300;2023-04-07T13:36:38;0.70;;;0.70;;
30593;SDS011;33199;47.590;8.300;2023-04-07T13:39:05;0.50;;;0.50;;
30593;SDS011;33199;47.590;8.300;2023-04-07T13:41:31;1.02;;;0.70;;
30593;SDS011;33199;47.590;8.300;2023-04-07T13:43:57;0.63;;;0.63;;
30593;SDS011;33199;47.590;8.300;2023-04-07T13:46:23;0.60;;;0.60;;
30593;SDS011;33199;47.590;8.300;2023-04-07T13:48:50;0.50;;;0.50;;
30593;SDS011;33199;47.590;8.300;2023-04-07T13:51:16;0.65;;;0.65;;
30593;SDS011;33199;47.590;8.300;2023-04-07T13:53:44;0.50;;;0.50;;
30593;SDS011;33199;47.590;8.300;2023-04-07T13:56:10;0.90;;;0.60;;
30593;SDS011;33199;47.590;8.300;2023-04-07T13:58:36;1.10;;;0.60;;
30593;SDS011;33199;47.590;8.300;2023-04-07T14:01:02;0.90;;;0.65;;
30593;SDS011;33199;47.590;8.300;2023-04-07T14:03:29;0.52;;;0.52;;
30593;SDS011;33199;47.590;8.300;2023-04-07T14:05:55;0.73;;;0.60;;
30593;SDS011;33199;47.590;8.300;2023-04-07T14:08:25;0.50;;;0.50;;
30593;SDS011;33199;47.590;8.300;2023-04-07T14:10:51;0.45;;;0.45;;
30593;SDS011;33199;47.590;8.300;2023-04-07T14:13:17;0.60;;;0.60;;
30593;SDS011;33199;47.590;8.300;2023-04-07T14:15:42;0.60;;;0.60;;
30593;SDS011;33199;47.590;8.300;2023-04-07T14:18:08;0.40;;;0.40;;
30593;SDS011;33199;47.590;8.300;2023-04-07T14:20:34;0.60;;;0.60;;
30593;SDS011;33199;47.590;8.300;2023-04-07T14:23:00;1.10;;;0.52;;
30593;SDS011;33199;47.590;8.300;2023-04-07T14:25:26;0.50;;;0.50;;
30593;SDS011;33199;47.590;8.300;2023-04-07T14:27:51;0.70;;;0.70;;
30593;SDS011;33199;47.590;8.300;2023-04-07T14:30:17;0.55;;;0.55;;
30593;SDS011;33199;47.590;8.300;2023-04-07T14:32:43;0.60;;;0.60;;
30593;SDS011;33199;47.590;8.300;2023-04-07T14:35:10;0.52;;;0.52;;
30593;SDS011;33199;47.590;8.300;2023-04-07T14:37:36;0.68;;;0.68;;
30593;SDS011;33199;47.590;8.300;2023-04-07T14:40:02;0.50;;;0.50;;
30593;SDS011;33199;47.590;8.300;2023-04-07T14:42:29;0.63;;;0.63;;
30593;SDS011;33199;47.590;8.300;2023-04-07T14:44:55;0.47;;;0.47;;
30593;SDS011;33199;47.590;8.300;2023-04-07T14:47:20;0.40;;;0.40;;
30593;SDS011;33199;47.590;8.300;2023-04-07T14:49:46;0.40;;;0.40;;
30593;SDS011;33199;47.590;8.300;2023-04-07T14:52:12;0.50;;;0.50;;
30593;SDS011;33199;47.590;8.300;2023-04-07T14:54:38;0.57;;;0.47;;
30593;SDS011;33199;47.590;8.300;2023-04-07T14:57:04;0.50;;;0.50;;
30593;SDS011;33199;47.590;8.300;2023-04-07T14:59:30;0.50;;;0.50;;
30593;SDS011;33199;47.590;8.300;2023-04-07T15:01:56;0.50;;;0.50;;
30593;SDS011;33199;47.590;8.300;2023-04-07T15:04:21;0.60;;;0.60;;
30593;SDS011;33199;47.590;8.300;2023-04-07T15:06:47;0.40;;;0.40;;
30593;SDS011;33199;47.590;8.300;2023-04-07T15:09:12;1.38;;;0.60;;
30593;SDS011;33199;47.590;8.300;2023-04-07T15:11:38;0.52;;;0.52;;
30593;SDS011;33199;47.590;8.300;2023-04-07T15:14:03;0.60;;;0.60;;
30593;SDS011;33199;47.590;8.300;2023-04-07T15:16:30;0.50;;;0.50;;
30593;SDS011;33199;47.590;8.300;2023-04-07T15:18:56;0.47;;;0.47;;